sensor_id;sensor_type;location;lat;lon;timestamp;pressure;altitude;pressure_sealevel;temperature;humidity
68376;BME280;55318;52.068;5.188;2022-12-24T00:00:49;100583.0;;;11.97;88.54
68376;BME280;55318;52.068;5.188;2022-12-24T00:02:30;100580.0;;;11.95;89.02
68376;BME280;55318;52.068;5.188;2022-12-24T00:04:06;100586.0;;;11.96;89.01
68376;BME280;55318;52.068;5.188;2022-12-24T00:05:42;100591.0;;;12.0;88.77
68376;BME280;55318;52.068;5.188;2022-12-24T00:08:55;100599.0;;;11.85;88.82
68376;BME280;55318;52.068;5.188;2022-12-24T00:10:31;100594.0;;;11.84;89.01
68376;BME280;55318;52.068;5.188;2022-12-24T00:12:08;100598.0;;;11.8;89.19
68376;BME280;55318;52.068;5.188;2022-12-24T00:15:22;100588.0;;;11.85;89.01
68376;BME280;55318;52.068;5.188;2022-12-24T00:16:58;100597.0;;;11.99;88.44
68376;BME280;55318;52.068;5.188;2022-12-24T00:18:34;100601.0;;;11.88;88.41
68376;BME280;55318;52.068;5.188;2022-12-24T00:21:47;100603.0;;;11.87;88.16
68376;BME280;55318;52.068;5.188;2022-12-24T00:23:23;100605.0;;;11.9;88.31
68376;BME280;55318;52.068;5.188;2022-12-24T00:25:00;100606.0;;;11.92;87.98
68376;BME280;55318;52.068;5.188;2022-12-24T00:28:13;100602.0;;;11.91;87.94
68376;BME280;55318;52.068;5.188;2022-12-24T00:29:50;100608.0;;;11.96;87.62
68376;BME280;55318;52.068;5.188;2022-12-24T00:31:27;100611.0;;;11.9;87.5
68376;BME280;55318;52.068;5.188;2022-12-24T00:33:04;100620.0;;;11.99;87.29
68376;BME280;55318;52.068;5.188;2022-12-24T00:36:17;100620.0;;;12.05;86.52
68376;BME280;55318;52.068;5.188;2022-12-24T00:37:54;100624.0;;;12.01;86.78
68376;BME280;55318;52.068;5.188;2022-12-24T00:39:31;100626.0;;;11.91;86.66
68376;BME280;55318;52.068;5.188;2022-12-24T00:42:45;100631.0;;;11.98;86.37
68376;BME280;55318;52.068;5.188;2022-12-24T00:44:22;100634.0;;;11.98;86.4
68376;BME280;55318;52.068;5.188;2022-12-24T00:45:58;100638.0;;;11.94;86.63
68376;BME280;55318;52.068;5.188;2022-12-24T00:47:35;100640.0;;;11.85;87.17
68376;BME280;55318;52.068;5.188;2022-12-24T00:50:50;100641.0;;;11.84;86.97
68376;BME280;55318;52.068;5.188;2022-12-24T00:52:26;100645.0;;;11.56;87.48
68376;BME280;55318;52.068;5.188;2022-12-24T00:54:03;100645.0;;;11.51;87.69
68376;BME280;55318;52.068;5.188;2022-12-24T00:57:16;100646.0;;;11.62;87.4
68376;BME280;55318;52.068;5.188;2022-12-24T00:58:52;100653.0;;;11.46;87.63
68376;BME280;55318;52.068;5.188;2022-12-24T01:00:29;100657.0;;;11.57;87.47
68376;BME280;55318;52.068;5.188;2022-12-24T01:03:41;100656.0;;;11.51;87.37
68376;BME280;55318;52.068;5.188;2022-12-24T01:05:19;100663.0;;;11.57;87.37
68376;BME280;55318;52.068;5.188;2022-12-24T01:06:55;100665.0;;;11.37;87.82
68376;BME280;55318;52.068;5.188;2022-12-24T01:08:32;100670.0;;;11.44;87.53
68376;BME280;55318;52.068;5.188;2022-12-24T01:11:47;100674.0;;;11.37;87.84
68376;BME280;55318;52.068;5.188;2022-12-24T01:13:24;100675.0;;;11.31;88.2
68376;BME280;55318;52.068;5.188;2022-12-24T01:15:01;100687.0;;;11.22;88.78
68376;BME280;55318;52.068;5.188;2022-12-24T01:18:14;100690.0;;;11.16;88.95
68376;BME280;55318;52.068;5.188;2022-12-24T01:19:51;100689.0;;;11.15;89.2
68376;BME280;55318;52.068;5.188;2022-12-24T01:21:27;100694.0;;;11.11;89.09
68376;BME280;55318;52.068;5.188;2022-12-24T01:24:40;100691.0;;;11.26;88.22
68376;BME280;55318;52.068;5.188;2022-12-24T01:26:17;100702.0;;;11.26;87.75
68376;BME280;55318;52.068;5.188;2022-12-24T01:27:53;100705.0;;;11.0;88.95
68376;BME280;55318;52.068;5.188;2022-12-24T01:29:29;100698.0;;;11.03;88.84
68376;BME280;55318;52.068;5.188;2022-12-24T01:32:46;100703.0;;;11.13;88.52
68376;BME280;55318;52.068;5.188;2022-12-24T01:34:22;100705.0;;;11.09;88.43
68376;BME280;55318;52.068;5.188;2022-12-24T01:36:01;100708.0;;;11.06;88.38
68376;BME280;55318;52.068;5.188;2022-12-24T01:39:15;100711.0;;;11.12;88.23
68376;BME280;55318;52.068;5.188;2022-12-24T01:40:52;100708.0;;;11.09;88.44
68376;BME280;55318;52.068;5.188;2022-12-24T01:42:28;100709.0;;;11.04;88.24
68376;BME280;55318;52.068;5.188;2022-12-24T01:44:22;100721.0;;;10.76;89.67
68376;BME280;55318;52.068;5.188;2022-12-24T01:47:39;100730.0;;;10.9;89.1
68376;BME280;55318;52.068;5.188;2022-12-24T01:49:16;100730.0;;;10.73;89.77
68376;BME280;55318;52.068;5.188;2022-12-24T01:50:57;100731.0;;;10.78;89.81
68376;BME280;55318;52.068;5.188;2022-12-24T01:52:35;100730.0;;;10.75;89.86
68376;BME280;55318;52.068;5.188;2022-12-24T01:55:54;100734.0;;;10.9;89.12
68376;BME280;55318;52.068;5.188;2022-12-24T01:57:35;100734.0;;;10.74;89.71
68376;BME280;55318;52.068;5.188;2022-12-24T01:59:15;100738.0;;;10.48;90.59
68376;BME280;55318;52.068;5.188;2022-12-24T02:00:53;100736.0;;;10.69;90.41
68376;BME280;55318;52.068;5.188;2022-12-24T02:04:12;100739.0;;;10.89;89.12
68376;BME280;55318;52.068;5.188;2022-12-24T02:05:54;100743.0;;;10.75;89.61
68376;BME280;55318;52.068;5.188;2022-12-24T02:07:32;100751.0;;;10.77;89.39
68376;BME280;55318;52.068;5.188;2022-12-24T02:09:09;100750.0;;;10.81;89.13
68376;BME280;55318;52.068;5.188;2022-12-24T02:12:24;100756.0;;;10.72;89.54
68376;BME280;55318;52.068;5.188;2022-12-24T02:14:01;100765.0;;;10.77;89.64
68376;BME280;55318;52.068;5.188;2022-12-24T02:15:50;100763.0;;;10.78;89.46
68376;BME280;55318;52.068;5.188;2022-12-24T02:17:34;100771.0;;;10.82;89.37
68376;BME280;55318;52.068;5.188;2022-12-24T02:21:51;100773.0;;;10.71;89.95
68376;BME280;55318;52.068;5.188;2022-12-24T02:27:12;100784.0;;;10.56;90.31
68376;BME280;55318;52.068;5.188;2022-12-24T02:29:12;100782.0;;;10.57;90.39
68376;BME280;55318;52.068;5.188;2022-12-24T02:30:59;100780.0;;;10.54;90.6
68376;BME280;55318;52.068;5.188;2022-12-24T02:32:47;100780.0;;;10.63;90.31
68376;BME280;55318;52.068;5.188;2022-12-24T02:35:35;100780.0;;;10.59;90.42
68376;BME280;55318;52.068;5.188;2022-12-24T02:37:21;100780.0;;;10.54;90.61
68376;BME280;55318;52.068;5.188;2022-12-24T02:39:03;100780.0;;;10.51;90.27
68376;BME280;55318;52.068;5.188;2022-12-24T02:40:45;100780.0;;;10.54;90.1
68376;BME280;55318;52.068;5.188;2022-12-24T02:44:07;100782.0;;;10.54;90.28
68376;BME280;55318;52.068;5.188;2022-12-24T02:45:47;100780.0;;;10.56;89.95
68376;BME280;55318;52.068;5.188;2022-12-24T02:47:27;100783.0;;;10.57;89.87
68376;BME280;55318;52.068;5.188;2022-12-24T02:49:04;100780.0;;;10.6;89.64
68376;BME280;55318;52.068;5.188;2022-12-24T02:52:33;100781.0;;;10.56;89.59
68376;BME280;55318;52.068;5.188;2022-12-24T02:54:11;100784.0;;;10.57;89.56
68376;BME280;55318;52.068;5.188;2022-12-24T02:55:58;100792.0;;;10.5;90.14
68376;BME280;55318;52.068;5.188;2022-12-24T02:57:58;100788.0;;;10.42;90.28
68376;BME280;55318;52.068;5.188;2022-12-24T02:59:58;100800.0;;;10.51;90.28
68376;BME280;55318;52.068;5.188;2022-12-24T03:01:45;100790.0;;;10.39;90.86
68376;BME280;55318;52.068;5.188;2022-12-24T03:05:21;100788.0;;;10.42;90.67
68376;BME280;55318;52.068;5.188;2022-12-24T03:07:06;100792.0;;;10.43;91.13
68376;BME280;55318;52.068;5.188;2022-12-24T03:08:52;100790.0;;;10.45;91.44
68376;BME280;55318;52.068;5.188;2022-12-24T03:10:36;100789.0;;;10.32;91.79
68376;BME280;55318;52.068;5.188;2022-12-24T03:12:19;100790.0;;;10.27;92.46
68376;BME280;55318;52.068;5.188;2022-12-24T03:14:00;100790.0;;;10.5;91.87
68376;BME280;55318;52.068;5.188;2022-12-24T03:17:17;100790.0;;;10.46;92.08
68376;BME280;55318;52.068;5.188;2022-12-24T03:18:56;100792.0;;;10.44;92.14
68376;BME280;55318;52.068;5.188;2022-12-24T03:20:37;100793.0;;;10.51;92.58
68376;BME280;55318;52.068;5.188;2022-12-24T03:23:54;100796.0;;;10.51;93.05
68376;BME280;55318;52.068;5.188;2022-12-24T03:25:32;100802.0;;;10.57;93.01
68376;BME280;55318;52.068;5.188;2022-12-24T03:27:10;100797.0;;;10.58;93.46
68376;BME280;55318;52.068;5.188;2022-12-24T03:30:25;100801.0;;;10.68;93.24
68376;BME280;55318;52.068;5.188;2022-12-24T03:32:03;100803.0;;;10.59;93.88
68376;BME280;55318;52.068;5.188;2022-12-24T03:33:40;100808.0;;;10.65;93.99
68376;BME280;55318;52.068;5.188;2022-12-24T03:35:17;100810.0;;;10.55;94.32
68376;BME280;55318;52.068;5.188;2022-12-24T03:38:29;100815.0;;;10.84;93.93
68376;BME280;55318;52.068;5.188;2022-12-24T03:40:07;100815.0;;;10.81;93.93
68376;BME280;55318;52.068;5.188;2022-12-24T03:41:44;100826.0;;;10.86;94.14
68376;BME280;55318;52.068;5.188;2022-12-24T03:43:20;100821.0;;;10.77;94.88
68376;BME280;55318;52.068;5.188;2022-12-24T03:46:33;100823.0;;;10.75;95.31
68376;BME280;55318;52.068;5.188;2022-12-24T03:48:09;100826.0;;;10.8;95.44
68376;BME280;55318;52.068;5.188;2022-12-24T03:49:45;100825.0;;;10.76;95.89
68376;BME280;55318;52.068;5.188;2022-12-24T03:53:01;100815.0;;;10.8;96.03
68376;BME280;55318;52.068;5.188;2022-12-24T03:54:37;100824.0;;;10.84;96.38
68376;BME280;55318;52.068;5.188;2022-12-24T03:56:13;100834.0;;;10.83;96.73
68376;BME280;55318;52.068;5.188;2022-12-24T03:59:26;100830.0;;;10.96;96.34
68376;BME280;55318;52.068;5.188;2022-12-24T04:01:03;100821.0;;;11.04;96.25
68376;BME280;55318;52.068;5.188;2022-12-24T04:02:39;100822.0;;;11.03;96.06
68376;BME280;55318;52.068;5.188;2022-12-24T04:04:15;100830.0;;;11.07;95.96
68376;BME280;55318;52.068;5.188;2022-12-24T04:07:37;100827.0;;;11.08;95.73
68376;BME280;55318;52.068;5.188;2022-12-24T04:09:13;100837.0;;;10.99;95.92
68376;BME280;55318;52.068;5.188;2022-12-24T04:10:49;100832.0;;;11.2;95.46
68376;BME280;55318;52.068;5.188;2022-12-24T04:14:02;100831.0;;;11.13;95.37
68376;BME280;55318;52.068;5.188;2022-12-24T04:15:38;100822.0;;;11.12;95.3
68376;BME280;55318;52.068;5.188;2022-12-24T04:17:15;100818.0;;;11.1;95.81
68376;BME280;55318;52.068;5.188;2022-12-24T04:20:28;100825.0;;;11.21;94.97
68376;BME280;55318;52.068;5.188;2022-12-24T04:22:04;100832.0;;;11.16;94.91
68376;BME280;55318;52.068;5.188;2022-12-24T04:23:41;100838.0;;;11.16;95.34
68376;BME280;55318;52.068;5.188;2022-12-24T04:25:17;100835.0;;;11.22;94.65
68376;BME280;55318;52.068;5.188;2022-12-24T04:28:30;100843.0;;;11.34;94.6
68376;BME280;55318;52.068;5.188;2022-12-24T04:30:08;100840.0;;;11.18;95.05
68376;BME280;55318;52.068;5.188;2022-12-24T04:31:44;100839.0;;;11.26;95.0
68376;BME280;55318;52.068;5.188;2022-12-24T04:34:56;100844.0;;;11.25;95.11
68376;BME280;55318;52.068;5.188;2022-12-24T04:36:32;100845.0;;;11.31;94.6
68376;BME280;55318;52.068;5.188;2022-12-24T04:38:09;100851.0;;;11.36;94.41
68376;BME280;55318;52.068;5.188;2022-12-24T04:41:22;100856.0;;;11.27;94.76
68376;BME280;55318;52.068;5.188;2022-12-24T04:42:59;100851.0;;;11.42;94.52
68376;BME280;55318;52.068;5.188;2022-12-24T04:44:36;100853.0;;;11.29;94.88
68376;BME280;55318;52.068;5.188;2022-12-24T04:47:51;100850.0;;;11.39;94.5
68376;BME280;55318;52.068;5.188;2022-12-24T04:49:27;100853.0;;;11.47;94.1
68376;BME280;55318;52.068;5.188;2022-12-24T04:51:05;100852.0;;;11.34;94.42
68376;BME280;55318;52.068;5.188;2022-12-24T04:55:54;100858.0;;;11.3;94.79
68376;BME280;55318;52.068;5.188;2022-12-24T04:57:31;100859.0;;;11.53;93.75
68376;BME280;55318;52.068;5.188;2022-12-24T04:59:08;100870.0;;;11.33;94.22
68376;BME280;55318;52.068;5.188;2022-12-24T05:00:44;100870.0;;;11.49;93.97
68376;BME280;55318;52.068;5.188;2022-12-24T05:03:57;100875.0;;;11.41;94.16
68376;BME280;55318;52.068;5.188;2022-12-24T05:05:33;100874.0;;;11.51;93.76
68376;BME280;55318;52.068;5.188;2022-12-24T05:07:10;100874.0;;;11.61;93.27
68376;BME280;55318;52.068;5.188;2022-12-24T05:10:22;100870.0;;;11.58;93.63
68376;BME280;55318;52.068;5.188;2022-12-24T05:11:58;100868.0;;;11.59;93.61
68376;BME280;55318;52.068;5.188;2022-12-24T05:13:35;100865.0;;;11.66;93.54
68376;BME280;55318;52.068;5.188;2022-12-24T05:16:47;100869.0;;;11.54;93.87
68376;BME280;55318;52.068;5.188;2022-12-24T05:18:24;100867.0;;;11.51;94.53
68376;BME280;55318;52.068;5.188;2022-12-24T05:20:00;100868.0;;;11.56;94.62
68376;BME280;55318;52.068;5.188;2022-12-24T05:21:36;100871.0;;;11.65;94.21
68376;BME280;55318;52.068;5.188;2022-12-24T05:24:52;100872.0;;;11.56;94.6
68376;BME280;55318;52.068;5.188;2022-12-24T05:26:31;100875.0;;;11.47;95.06
68376;BME280;55318;52.068;5.188;2022-12-24T05:28:09;100875.0;;;11.53;94.85
68376;BME280;55318;52.068;5.188;2022-12-24T05:31:24;100880.0;;;11.44;95.45
68376;BME280;55318;52.068;5.188;2022-12-24T05:33:00;100882.0;;;11.56;94.92
68376;BME280;55318;52.068;5.188;2022-12-24T05:34:36;100888.0;;;11.43;95.55
68376;BME280;55318;52.068;5.188;2022-12-24T05:37:49;100888.0;;;11.44;95.65
68376;BME280;55318;52.068;5.188;2022-12-24T05:39:26;100891.0;;;11.44;96.32
68376;BME280;55318;52.068;5.188;2022-12-24T05:41:02;100887.0;;;11.38;96.45
68376;BME280;55318;52.068;5.188;2022-12-24T05:42:39;100884.0;;;11.27;97.52
68376;BME280;55318;52.068;5.188;2022-12-24T05:45:57;100881.0;;;11.56;96.47
68376;BME280;55318;52.068;5.188;2022-12-24T05:47:33;100885.0;;;11.35;97.63
68376;BME280;55318;52.068;5.188;2022-12-24T05:49:10;100881.0;;;11.55;96.66
68376;BME280;55318;52.068;5.188;2022-12-24T05:52:24;100887.0;;;11.7;95.97
68376;BME280;55318;52.068;5.188;2022-12-24T05:54:00;100884.0;;;11.72;95.78
68376;BME280;55318;52.068;5.188;2022-12-24T05:55:36;100886.0;;;11.65;96.07
68376;BME280;55318;52.068;5.188;2022-12-24T05:57:12;100892.0;;;11.48;96.42
68376;BME280;55318;52.068;5.188;2022-12-24T06:00:26;100897.0;;;11.66;96.01
68376;BME280;55318;52.068;5.188;2022-12-24T06:02:02;100903.0;;;11.65;95.48
68376;BME280;55318;52.068;5.188;2022-12-24T06:03:38;100902.0;;;11.6;95.46
68376;BME280;55318;52.068;5.188;2022-12-24T06:06:51;100909.0;;;11.62;95.68
68376;BME280;55318;52.068;5.188;2022-12-24T06:08:28;100907.0;;;11.6;95.51
68376;BME280;55318;52.068;5.188;2022-12-24T06:10:06;100906.0;;;11.55;95.54
68376;BME280;55318;52.068;5.188;2022-12-24T06:13:19;100916.0;;;11.28;96.91
68376;BME280;55318;52.068;5.188;2022-12-24T06:14:55;100917.0;;;11.31;97.52
68376;BME280;55318;52.068;5.188;2022-12-24T06:16:32;100915.0;;;11.49;96.81
68376;BME280;55318;52.068;5.188;2022-12-24T06:18:08;100915.0;;;11.58;96.1
68376;BME280;55318;52.068;5.188;2022-12-24T06:21:20;100921.0;;;11.53;96.23
68376;BME280;55318;52.068;5.188;2022-12-24T06:22:57;100923.0;;;11.52;96.27
68376;BME280;55318;52.068;5.188;2022-12-24T06:24:34;100922.0;;;11.45;96.41
68376;BME280;55318;52.068;5.188;2022-12-24T06:27:48;100919.0;;;11.33;97.23
68376;BME280;55318;52.068;5.188;2022-12-24T06:29:24;100926.0;;;11.53;96.62
68376;BME280;55318;52.068;5.188;2022-12-24T06:31:01;100935.0;;;11.51;96.55
68376;BME280;55318;52.068;5.188;2022-12-24T06:34:14;100942.0;;;11.64;95.81
68376;BME280;55318;52.068;5.188;2022-12-24T06:35:50;100937.0;;;11.65;95.58
68376;BME280;55318;52.068;5.188;2022-12-24T06:37:26;100933.0;;;11.54;95.94
68376;BME280;55318;52.068;5.188;2022-12-24T06:39:02;100937.0;;;11.48;96.6
68376;BME280;55318;52.068;5.188;2022-12-24T06:42:16;100940.0;;;11.57;96.55
68376;BME280;55318;52.068;5.188;2022-12-24T06:43:53;100938.0;;;11.41;97.14
68376;BME280;55318;52.068;5.188;2022-12-24T06:45:29;100936.0;;;11.52;96.67
68376;BME280;55318;52.068;5.188;2022-12-24T06:48:41;100937.0;;;11.61;96.54
68376;BME280;55318;52.068;5.188;2022-12-24T06:50:18;100948.0;;;11.49;96.87
68376;BME280;55318;52.068;5.188;2022-12-24T06:51:54;100941.0;;;11.58;96.83
68376;BME280;55318;52.068;5.188;2022-12-24T06:55:08;100937.0;;;11.51;96.41
68376;BME280;55318;52.068;5.188;2022-12-24T06:56:45;100933.0;;;11.45;96.76
68376;BME280;55318;52.068;5.188;2022-12-24T06:58:21;100938.0;;;11.54;96.2
68376;BME280;55318;52.068;5.188;2022-12-24T06:59:58;100940.0;;;11.54;96.02
68376;BME280;55318;52.068;5.188;2022-12-24T07:03:11;100943.0;;;11.52;95.4
68376;BME280;55318;52.068;5.188;2022-12-24T07:04:47;100946.0;;;11.64;94.85
68376;BME280;55318;52.068;5.188;2022-12-24T07:06:24;100946.0;;;11.72;94.04
68376;BME280;55318;52.068;5.188;2022-12-24T07:09:40;100946.0;;;11.68;93.85
68376;BME280;55318;52.068;5.188;2022-12-24T07:11:17;100947.0;;;11.65;93.78
68376;BME280;55318;52.068;5.188;2022-12-24T07:12:53;100948.0;;;11.68;93.44
68376;BME280;55318;52.068;5.188;2022-12-24T07:16:06;100952.0;;;11.51;93.91
68376;BME280;55318;52.068;5.188;2022-12-24T07:17:43;100960.0;;;11.57;93.34
68376;BME280;55318;52.068;5.188;2022-12-24T07:19:19;100963.0;;;11.35;94.22
68376;BME280;55318;52.068;5.188;2022-12-24T07:20:55;100964.0;;;11.46;93.89
68376;BME280;55318;52.068;5.188;2022-12-24T07:24:08;100965.0;;;11.23;94.7
68376;BME280;55318;52.068;5.188;2022-12-24T07:25:45;100969.0;;;11.23;94.79
68376;BME280;55318;52.068;5.188;2022-12-24T07:27:21;100972.0;;;11.24;94.72
68376;BME280;55318;52.068;5.188;2022-12-24T07:30:34;100978.0;;;11.18;94.88
68376;BME280;55318;52.068;5.188;2022-12-24T07:32:10;100985.0;;;11.2;95.08
68376;BME280;55318;52.068;5.188;2022-12-24T07:33:46;100981.0;;;11.11;95.59
68376;BME280;55318;52.068;5.188;2022-12-24T07:36:59;100990.0;;;11.18;95.18
68376;BME280;55318;52.068;5.188;2022-12-24T07:40:13;101000.0;;;11.21;94.84
68376;BME280;55318;52.068;5.188;2022-12-24T07:41:49;101005.0;;;11.21;94.54
68376;BME280;55318;52.068;5.188;2022-12-24T07:45:03;101007.0;;;11.12;94.37
68376;BME280;55318;52.068;5.188;2022-12-24T07:46:40;101016.0;;;11.13;95.17
68376;BME280;55318;52.068;5.188;2022-12-24T07:48:17;101027.0;;;11.12;94.68
68376;BME280;55318;52.068;5.188;2022-12-24T07:51:30;101031.0;;;11.05;95.44
68376;BME280;55318;52.068;5.188;2022-12-24T07:53:07;101033.0;;;10.96;95.72
68376;BME280;55318;52.068;5.188;2022-12-24T07:54:42;101038.0;;;11.1;95.37
68376;BME280;55318;52.068;5.188;2022-12-24T07:57:55;101049.0;;;11.06;95.56
68376;BME280;55318;52.068;5.188;2022-12-24T07:59:31;101049.0;;;10.99;95.76
68376;BME280;55318;52.068;5.188;2022-12-24T08:01:08;101055.0;;;11.13;95.43
68376;BME280;55318;52.068;5.188;2022-12-24T08:02:47;101047.0;;;10.97;96.1
68376;BME280;55318;52.068;5.188;2022-12-24T08:05:59;101053.0;;;11.19;95.27
68376;BME280;55318;52.068;5.188;2022-12-24T08:07:36;101057.0;;;11.19;95.12
68376;BME280;55318;52.068;5.188;2022-12-24T08:09:13;101061.0;;;11.28;94.44
68376;BME280;55318;52.068;5.188;2022-12-24T08:12:26;101060.0;;;11.2;94.95
68376;BME280;55318;52.068;5.188;2022-12-24T08:14:02;101062.0;;;11.27;94.33
68376;BME280;55318;52.068;5.188;2022-12-24T08:15:38;101066.0;;;11.24;94.75
68376;BME280;55318;52.068;5.188;2022-12-24T08:18:51;101069.0;;;11.24;94.39
68376;BME280;55318;52.068;5.188;2022-12-24T08:20:27;101075.0;;;11.06;95.04
68376;BME280;55318;52.068;5.188;2022-12-24T08:22:03;101080.0;;;11.04;95.27
68376;BME280;55318;52.068;5.188;2022-12-24T08:23:39;101080.0;;;11.23;94.91
68376;BME280;55318;52.068;5.188;2022-12-24T08:26:52;101078.0;;;11.24;95.04
68376;BME280;55318;52.068;5.188;2022-12-24T08:28:29;101082.0;;;11.33;94.75
68376;BME280;55318;52.068;5.188;2022-12-24T08:30:06;101084.0;;;11.3;94.86
68376;BME280;55318;52.068;5.188;2022-12-24T08:33:19;101086.0;;;11.38;95.03
68376;BME280;55318;52.068;5.188;2022-12-24T08:34:55;101095.0;;;11.37;95.22
68376;BME280;55318;52.068;5.188;2022-12-24T08:36:31;101091.0;;;11.39;95.52
68376;BME280;55318;52.068;5.188;2022-12-24T08:39:44;101098.0;;;11.48;95.08
68376;BME280;55318;52.068;5.188;2022-12-24T08:41:20;101105.0;;;11.6;94.4
68376;BME280;55318;52.068;5.188;2022-12-24T08:42:56;101106.0;;;11.59;95.05
68376;BME280;55318;52.068;5.188;2022-12-24T08:44:32;101113.0;;;11.53;95.05
68376;BME280;55318;52.068;5.188;2022-12-24T08:47:46;101116.0;;;11.56;95.0
68376;BME280;55318;52.068;5.188;2022-12-24T08:49:23;101116.0;;;11.69;94.65
68376;BME280;55318;52.068;5.188;2022-12-24T08:50:59;101121.0;;;11.55;94.96
68376;BME280;55318;52.068;5.188;2022-12-24T08:54:11;101117.0;;;11.52;94.98
68376;BME280;55318;52.068;5.188;2022-12-24T08:55:47;101126.0;;;11.63;94.74
68376;BME280;55318;52.068;5.188;2022-12-24T08:57:24;101133.0;;;11.56;94.71
68376;BME280;55318;52.068;5.188;2022-12-24T09:00:36;101133.0;;;11.7;94.75
68376;BME280;55318;52.068;5.188;2022-12-24T09:02:13;101132.0;;;11.77;94.14
68376;BME280;55318;52.068;5.188;2022-12-24T09:03:49;101140.0;;;11.73;94.7
68376;BME280;55318;52.068;5.188;2022-12-24T09:07:02;101141.0;;;11.67;94.78
68376;BME280;55318;52.068;5.188;2022-12-24T09:08:38;101147.0;;;11.75;94.88
68376;BME280;55318;52.068;5.188;2022-12-24T09:10:15;101148.0;;;11.68;95.05
68376;BME280;55318;52.068;5.188;2022-12-24T09:11:51;101148.0;;;11.68;95.1
68376;BME280;55318;52.068;5.188;2022-12-24T09:15:04;101153.0;;;11.81;94.5
68376;BME280;55318;52.068;5.188;2022-12-24T09:16:42;101159.0;;;11.94;93.95
68376;BME280;55318;52.068;5.188;2022-12-24T09:18:18;101155.0;;;11.88;94.21
68376;BME280;55318;52.068;5.188;2022-12-24T09:21:30;101155.0;;;11.84;94.22
68376;BME280;55318;52.068;5.188;2022-12-24T09:23:06;101167.0;;;11.91;93.61
68376;BME280;55318;52.068;5.188;2022-12-24T09:24:42;101170.0;;;12.02;93.24
68376;BME280;55318;52.068;5.188;2022-12-24T09:27:58;101163.0;;;11.97;93.43
68376;BME280;55318;52.068;5.188;2022-12-24T09:29:34;101164.0;;;11.91;93.69
68376;BME280;55318;52.068;5.188;2022-12-24T09:31:11;101164.0;;;12.09;92.85
68376;BME280;55318;52.068;5.188;2022-12-24T09:32:49;101171.0;;;12.2;92.32
68376;BME280;55318;52.068;5.188;2022-12-24T09:36:03;101173.0;;;12.04;92.32
68376;BME280;55318;52.068;5.188;2022-12-24T09:37:40;101180.0;;;12.13;92.58
68376;BME280;55318;52.068;5.188;2022-12-24T09:39:17;101184.0;;;12.19;91.91
68376;BME280;55318;52.068;5.188;2022-12-24T09:42:40;101187.0;;;12.14;91.84
68376;BME280;55318;52.068;5.188;2022-12-24T09:44:33;101184.0;;;12.13;91.64
68376;BME280;55318;52.068;5.188;2022-12-24T09:46:20;101194.0;;;12.3;91.22
68376;BME280;55318;52.068;5.188;2022-12-24T09:48:00;101196.0;;;12.13;91.64
68376;BME280;55318;52.068;5.188;2022-12-24T09:49:42;101201.0;;;11.96;91.65
68376;BME280;55318;52.068;5.188;2022-12-24T09:53:11;101202.0;;;12.15;91.31
68376;BME280;55318;52.068;5.188;2022-12-24T09:55:06;101199.0;;;12.21;90.99
68376;BME280;55318;52.068;5.188;2022-12-24T09:56:45;101205.0;;;12.21;90.91
68376;BME280;55318;52.068;5.188;2022-12-24T09:58:26;101208.0;;;12.21;91.03
68376;BME280;55318;52.068;5.188;2022-12-24T10:00:15;101215.0;;;12.18;91.17
68376;BME280;55318;52.068;5.188;2022-12-24T10:03:30;101211.0;;;12.22;91.03
68376;BME280;55318;52.068;5.188;2022-12-24T10:05:13;101209.0;;;12.27;91.31
68376;BME280;55318;52.068;5.188;2022-12-24T10:06:54;101211.0;;;12.33;90.93
68376;BME280;55318;52.068;5.188;2022-12-24T10:08:43;101212.0;;;12.28;90.45
68376;BME280;55318;52.068;5.188;2022-12-24T10:10:30;101209.0;;;12.35;90.22
68376;BME280;55318;52.068;5.188;2022-12-24T10:14:05;101214.0;;;12.15;90.92
68376;BME280;55318;52.068;5.188;2022-12-24T10:15:54;101221.0;;;12.28;90.74
68376;BME280;55318;52.068;5.188;2022-12-24T10:17:46;101224.0;;;12.23;90.76
68376;BME280;55318;52.068;5.188;2022-12-24T10:19:35;101219.0;;;12.39;90.61
68376;BME280;55318;52.068;5.188;2022-12-24T10:21:26;101226.0;;;12.36;90.52
68376;BME280;55318;52.068;5.188;2022-12-24T10:23:16;101222.0;;;12.32;90.58
68376;BME280;55318;52.068;5.188;2022-12-24T10:26:44;101226.0;;;12.38;89.59
68376;BME280;55318;52.068;5.188;2022-12-24T10:28:30;101228.0;;;12.49;89.93
68376;BME280;55318;52.068;5.188;2022-12-24T10:30:18;101223.0;;;12.61;89.66
68376;BME280;55318;52.068;5.188;2022-12-24T10:32:03;101224.0;;;12.51;90.01
68376;BME280;55318;52.068;5.188;2022-12-24T10:33:49;101223.0;;;12.58;89.86
68376;BME280;55318;52.068;5.188;2022-12-24T10:35:35;101223.0;;;12.66;89.75
68376;BME280;55318;52.068;5.188;2022-12-24T10:38:58;101230.0;;;12.7;89.37
68376;BME280;55318;52.068;5.188;2022-12-24T10:40:39;101228.0;;;12.82;88.85
68376;BME280;55318;52.068;5.188;2022-12-24T10:42:19;101236.0;;;12.88;88.43
68376;BME280;55318;52.068;5.188;2022-12-24T10:43:58;101236.0;;;12.71;88.75
68376;BME280;55318;52.068;5.188;2022-12-24T10:47:19;101233.0;;;12.63;89.18
68376;BME280;55318;52.068;5.188;2022-12-24T10:49:00;101231.0;;;12.7;88.88
68376;BME280;55318;52.068;5.188;2022-12-24T10:50:40;101231.0;;;12.56;88.91
68376;BME280;55318;52.068;5.188;2022-12-24T10:52:20;101239.0;;;12.59;89.04
68376;BME280;55318;52.068;5.188;2022-12-24T10:55:41;101234.0;;;12.56;89.3
68376;BME280;55318;52.068;5.188;2022-12-24T10:57:24;101237.0;;;12.49;89.19
68376;BME280;55318;52.068;5.188;2022-12-24T10:59:00;101240.0;;;12.44;89.54
68376;BME280;55318;52.068;5.188;2022-12-24T11:00:37;101238.0;;;12.47;89.07
68376;BME280;55318;52.068;5.188;2022-12-24T11:04:04;101241.0;;;12.62;88.95
68376;BME280;55318;52.068;5.188;2022-12-24T11:05:40;101240.0;;;12.67;88.84
68376;BME280;55318;52.068;5.188;2022-12-24T11:07:18;101237.0;;;12.67;89.02
68376;BME280;55318;52.068;5.188;2022-12-24T11:09:16;101235.0;;;12.6;88.75
68376;BME280;55318;52.068;5.188;2022-12-24T11:12:37;101235.0;;;12.44;87.97
68376;BME280;55318;52.068;5.188;2022-12-24T11:14:17;101232.0;;;12.52;87.7